Time;durP1;ratioP1;P1;durP2;ratioP2;P2;SDS_P1;SDS_P2;PMS_P1;PMS_P2;Temp;Humidity;BMP_temperature;BMP_pressure;BME280_temperature;BME280_humidity;BME280_pressure;Samples;Min_cycle;Max_cycle;Signal;HPM_P1;HPM_P2
2023/01/27 00:01:36;;;;;;;;;;;;;;;2.21;80.66;101772.89;107376;1254;60596;-88
2023/01/27 00:04:03;;;;;;;;;;;;;;;2.19;80.62;101772.37;107488;1254;73860;-88
2023/01/27 00:06:30;;;;;;;;;;;;;;;2.19;80.93;101773.55;107178;1254;124359;-88
2023/01/27 00:08:57;;;;;;;;;;;;;;;2.18;80.87;101776.98;107218;1257;60527;-88
2023/01/27 00:14:23;;;;;;;;;;;;;;;2.20;81.02;101774.91;106806;1265;60983;-87
2023/01/27 00:16:49;;;;;;;;;;;;;;;2.23;81.09;101774.05;106820;1267;72330;-88
2023/01/27 00:19:25;;;;;;;;;;;;;;;2.24;81.02;101782.27;106873;1263;125142;-88
2023/01/27 00:24:38;;;;;;;;;;;;;;;2.26;81.07;101780.52;106699;1263;124288;-86
2023/01/27 00:27:07;;;;;;;;;;;;;;;2.27;80.97;101784.70;106788;1260;60471;-86
2023/01/27 00:29:34;;;;;;;;;;;;;;;2.29;81.10;101787.67;106593;1267;125253;-85
2023/01/27 00:34:46;;;;;;;;;;;;;;;2.25;80.86;101789.62;107301;1267;71870;-86
2023/01/27 00:37:13;;;;;;;;;;;;;;;2.24;81.06;101791.96;106631;1266;124166;-86
2023/01/27 00:39:40;;;;;;;;;;;;;;;2.27;81.12;101792.55;106685;1264;60444;-86
2023/01/27 00:42:06;;;;;;;;;;;;;;;2.31;81.26;101793.54;106535;1264;124269;-86
2023/01/27 00:44:36;;;;;;;;;;;;;;;2.35;81.27;101797.82;106830;1261;60619;-86
2023/01/27 00:47:07;;;;;;;;;;;;;;;2.37;81.06;101799.64;106767;1260;124320;-86
2023/01/27 00:49:33;;;;;;;;;;;;;;;2.33;81.08;101799.23;106982;1261;60473;-86
2023/01/27 00:52:34;;;;;;;;;;;;;;;2.36;81.22;101798.70;107280;1254;60546;-86
2023/01/27 00:55:02;;;;;;;;;;;;;;;2.34;81.03;101797.90;107137;1254;124405;-87
2023/01/27 00:57:34;;;;;;;;;;;;;;;2.35;81.03;101799.18;107171;1254;67150;-86
2023/01/27 01:00:00;;;;;;;;;;;;;;;2.36;81.11;101800.63;106762;1257;124846;-86
2023/01/27 01:02:28;;;;;;;;;;;;;;;2.39;81.25;101799.50;107068;1254;60404;-87
2023/01/27 01:04:56;;;;;;;;;;;;;;;2.39;81.19;101801.58;107320;1254;60671;-87
2023/01/27 01:07:25;;;;;;;;;;;;;;;2.37;81.08;101803.98;107215;1257;123908;-87
2023/01/27 01:09:58;;;;;;;;;;;;;;;2.37;80.92;101807.64;107225;1257;66908;-87
2023/01/27 01:12:24;;;;;;;;;;;;;;;2.37;81.10;101809.01;107080;1260;124347;-87
2023/01/27 01:14:50;;;;;;;;;;;;;;;2.39;81.13;101802.61;107362;1260;60548;-87
2023/01/27 01:17:17;;;;;;;;;;;;;;;2.39;81.04;101802.76;107280;1256;124240;-88
2023/01/27 01:19:43;;;;;;;;;;;;;;;2.38;81.05;101806.66;107374;1257;60596;-87
2023/01/27 01:22:44;;;;;;;;;;;;;;;2.36;80.96;101810.70;107402;1254;60262;-88
2023/01/27 01:25:11;;;;;;;;;;;;;;;2.37;81.06;101815.63;107333;1256;124117;-88
2023/01/27 01:27:37;;;;;;;;;;;;;;;2.36;81.04;101812.59;107564;1254;59056;-88
2023/01/27 01:30:04;;;;;;;;;;;;;;;2.36;81.18;101814.30;106967;1254;123606;-88
2023/01/27 01:32:30;;;;;;;;;;;;;;;2.37;81.16;101817.90;107222;1254;58378;-88
2023/01/27 01:34:58;;;;;;;;;;;;;;;2.40;81.18;101816.68;107038;1255;62494;-87
2023/01/27 01:37:26;;;;;;;;;;;;;;;2.41;81.24;101816.40;107293;1254;71366;-87
2023/01/27 01:39:52;;;;;;;;;;;;;;;2.42;81.44;101819.67;107263;1257;59261;-87
2023/01/27 01:42:18;;;;;;;;;;;;;;;2.44;81.41;101814.73;107547;1254;124320;-87
2023/01/27 01:45:17;;;;;;;;;;;;;;;2.45;81.30;101819.50;107380;1257;60472;-87
2023/01/27 01:47:44;;;;;;;;;;;;;;;2.44;81.39;101819.60;107325;1254;123823;-87
2023/01/27 01:50:12;;;;;;;;;;;;;;;2.40;81.27;101825.03;107219;1256;60411;-88
2023/01/27 01:52:43;;;;;;;;;;;;;;;2.35;81.25;101824.48;107333;1255;60504;-88
2023/01/27 01:55:10;;;;;;;;;;;;;;;2.30;81.15;101824.64;107356;1254;123513;-88
2023/01/27 01:57:39;;;;;;;;;;;;;;;2.28;81.22;101823.08;107441;1255;60380;-88
2023/01/27 02:00:06;;;;;;;;;;;;;;;2.26;81.30;101824.52;107188;1254;124433;-88
2023/01/27 02:02:35;;;;;;;;;;;;;;;2.24;81.38;101823.69;107304;1254;72892;-88
2023/01/27 02:05:24;;;;;;;;;;;;;;;2.24;81.40;101820.91;107093;1259;123564;-88
2023/01/27 02:07:55;;;;;;;;;;;;;;;2.25;81.60;101821.85;107248;1257;60475;-87
2023/01/27 02:10:54;;;;;;;;;;;;;;;2.28;81.65;101824.81;107296;1253;72448;-88
2023/01/27 02:13:21;;;;;;;;;;;;;;;2.29;81.53;101828.73;107152;1254;124305;-86
2023/01/27 02:15:47;;;;;;;;;;;;;;;2.30;81.68;101830.14;107010;1254;60375;-86
2023/01/27 02:18:15;;;;;;;;;;;;;;;2.30;81.54;101830.21;106959;1256;124252;-83
2023/01/27 02:20:43;;;;;;;;;;;;;;;2.31;81.65;101827.83;107158;1256;60454;-84
2023/01/27 02:23:31;;;;;;;;;;;;;;;2.32;81.69;101826.71;107238;1255;124794;-83
2023/01/27 02:26:00;;;;;;;;;;;;;;;2.36;81.64;101829.92;107293;1254;67281;-83
2023/01/27 02:28:27;;;;;;;;;;;;;;;2.38;81.65;101829.89;107244;1254;73035;-83
2023/01/27 02:30:53;;;;;;;;;;;;;;;2.39;81.46;101832.71;107543;1258;124095;-83
2023/01/27 02:33:20;;;;;;;;;;;;;;;2.40;81.61;101837.64;107348;1254;58743;-83
2023/01/27 02:35:55;;;;;;;;;;;;;;;2.41;81.53;101842.09;107231;1258;124950;-84
2023/01/27 02:38:22;;;;;;;;;;;;;;;2.44;81.70;101845.96;107301;1254;65494;-83
2023/01/27 02:41:22;;;;;;;;;;;;;;;2.46;81.69;101844.69;107423;1258;71786;-83
2023/01/27 02:43:49;;;;;;;;;;;;;;;2.50;81.67;101844.48;107380;1254;60370;-84
2023/01/27 02:46:16;;;;;;;;;;;;;;;2.51;81.43;101845.09;107203;1254;59365;-83
2023/01/27 02:48:43;;;;;;;;;;;;;;;2.53;81.53;101851.14;107318;1254;124564;-83
2023/01/27 02:51:09;;;;;;;;;;;;;;;2.55;81.53;101848.98;107952;1260;66868;-84
2023/01/27 02:53:36;;;;;;;;;;;;;;;2.57;81.48;101846.75;107290;1254;124371;-84
2023/01/27 02:56:02;;;;;;;;;;;;;;;2.60;81.67;101845.23;107145;1256;60435;-84
2023/01/27 02:58:29;;;;;;;;;;;;;;;2.63;81.49;101852.01;107375;1259;60494;-85
2023/01/27 03:00:56;;;;;;;;;;;;;;;2.65;81.57;101852.89;107253;1254;124125;-85
2023/01/27 03:03:55;;;;;;;;;;;;;;;2.66;81.53;101851.73;107243;1256;67098;-85
2023/01/27 03:06:22;;;;;;;;;;;;;;;2.69;81.53;101857.21;107283;1256;124205;-84
2023/01/27 03:08:48;;;;;;;;;;;;;;;2.75;81.70;101857.23;107161;1254;60643;-85
2023/01/27 03:20:08;;;;;;;;;;;;;;;2.81;81.49;101871.89;107254;1255;71455;-84
2023/01/27 03:22:35;;;;;;;;;;;;;;;2.77;81.32;101876.47;106964;1256;60666;-84
2023/01/27 03:25:03;;;;;;;;;;;;;;;2.76;81.54;101875.17;107152;1254;124068;-84
2023/01/27 03:27:29;;;;;;;;;;;;;;;2.73;81.48;101874.66;107181;1254;72375;-85
2023/01/27 03:30:01;;;;;;;;;;;;;;;2.68;81.46;101875.31;107254;1254;124304;-87
2023/01/27 03:32:28;;;;;;;;;;;;;;;2.66;81.52;101877.41;107250;1257;71404;-86
2023/01/27 03:34:59;;;;;;;;;;;;;;;2.61;81.46;101880.86;107273;1254;60462;-87
2023/01/27 03:48:34;;;;;;;;;;;;;;;2.60;81.87;101885.75;107395;1254;123455;-84
2023/01/27 03:51:06;;;;;;;;;;;;;;;2.60;81.83;101892.88;107080;1257;60577;-84
2023/01/27 03:53:33;;;;;;;;;;;;;;;2.56;81.82;101895.70;107038;1254;123633;-85
2023/01/27 03:55:59;;;;;;;;;;;;;;;2.53;81.85;101895.68;107328;1256;67145;-84
2023/01/27 03:58:31;;;;;;;;;;;;;;;2.52;81.84;101899.41;107233;1257;60392;-85
2023/01/27 04:00:58;;;;;;;;;;;;;;;2.52;81.93;101899.23;107433;1254;123698;-84
2023/01/27 04:09:33;;;;;;;;;;;;;;;2.63;82.15;101898.64;107286;1254;65147;-84
2023/01/27 04:12:03;;;;;;;;;;;;;;;2.67;82.24;101898.60;107339;1254;123876;-83
2023/01/27 04:14:31;;;;;;;;;;;;;;;2.67;82.03;101901.89;107138;1254;60541;-83
2023/01/27 04:17:37;;;;;;;;;;;;;;;2.66;82.11;101904.74;107175;1256;61317;-84
2023/01/27 04:20:04;;;;;;;;;;;;;;;2.66;81.92;101905.48;108069;1254;72591;-84
2023/01/27 04:22:30;;;;;;;;;;;;;;;2.67;82.02;101905.22;107664;1254;64769;-85
2023/01/27 04:24:59;;;;;;;;;;;;;;;2.69;82.08;101906.23;107248;1254;126216;-84
2023/01/27 04:27:26;;;;;;;;;;;;;;;2.70;82.10;101908.92;107484;1254;60342;-84
2023/01/27 04:29:53;;;;;;;;;;;;;;;2.71;82.11;101909.31;107283;1254;123567;-85
2023/01/27 04:32:19;;;;;;;;;;;;;;;2.71;82.04;101909.66;107473;1254;73869;-84
2023/01/27 04:34:46;;;;;;;;;;;;;;;2.69;81.90;101907.64;107048;1257;60490;-85
2023/01/27 04:37:12;;;;;;;;;;;;;;;2.70;81.98;101909.30;106996;1254;124153;-86
2023/01/27 04:39:40;;;;;;;;;;;;;;;2.72;82.02;101910.77;107105;1254;60516;-85
2023/01/27 04:42:07;;;;;;;;;;;;;;;2.73;82.26;101909.45;107202;1254;124547;-85
2023/01/27 04:44:35;;;;;;;;;;;;;;;2.74;82.19;101907.45;107248;1256;73922;-84
2023/01/27 04:47:01;;;;;;;;;;;;;;;2.72;82.04;101909.72;107403;1254;66875;-84
2023/01/27 04:49:28;;;;;;;;;;;;;;;2.68;82.10;101912.19;107127;1254;123924;-85
2023/01/27 04:51:56;;;;;;;;;;;;;;;2.62;82.11;101916.79;107061;1258;60569;-85
2023/01/27 04:58:04;;;;;;;;;;;;;;;2.59;82.76;101919.14;107347;1254;72873;-86
2023/01/27 05:00:32;;;;;;;;;;;;;;;2.59;82.93;101920.53;107265;1254;124401;-85
2023/01/27 05:03:09;;;;;;;;;;;;;;;2.63;83.08;101924.32;107240;1256;71060;-85
2023/01/27 05:05:36;;;;;;;;;;;;;;;2.65;83.24;101931.37;106884;1256;124314;-87
2023/01/27 05:08:04;;;;;;;;;;;;;;;2.67;83.38;101933.80;107030;1256;60467;-88
2023/01/27 05:10:32;;;;;;;;;;;;;;;2.69;83.51;101937.91;107148;1256;71942;-87
2023/01/27 05:13:00;;;;;;;;;;;;;;;2.70;83.77;101938.90;107198;1253;124136;-86
2023/01/27 05:16:04;;;;;;;;;;;;;;;2.74;83.86;101943.16;107028;1259;70275;-88
2023/01/27 05:18:31;;;;;;;;;;;;;;;2.78;84.07;101946.73;107157;1254;124150;-86
2023/01/27 05:21:03;;;;;;;;;;;;;;;2.81;84.19;101950.11;107175;1256;60443;-87
2023/01/27 05:24:01;;;;;;;;;;;;;;;2.87;84.32;101956.80;107124;1256;124858;-86
2023/01/27 05:26:27;;;;;;;;;;;;;;;2.92;84.38;101957.48;107358;1254;65704;-87
2023/01/27 05:29:00;;;;;;;;;;;;;;;2.94;84.44;101959.59;107206;1256;60572;-90
2023/01/27 05:31:59;;;;;;;;;;;;;;;2.94;84.39;101959.40;107040;1257;124762;-87
2023/01/27 05:34:27;;;;;;;;;;;;;;;2.93;84.58;101966.23;107421;1254;60473;-86
2023/01/27 05:36:56;;;;;;;;;;;;;;;2.92;84.60;101970.35;107471;1254;124133;-86
2023/01/27 05:39:23;;;;;;;;;;;;;;;2.90;84.67;101975.58;107455;1256;65560;-90
2023/01/27 05:41:49;;;;;;;;;;;;;;;2.88;84.56;101973.33;107155;1256;124428;-88
2023/01/27 05:44:17;;;;;;;;;;;;;;;2.87;84.81;101972.05;107327;1262;60382;-86
2023/01/27 05:46:45;;;;;;;;;;;;;;;2.87;84.81;101975.67;107248;1254;61211;-84
2023/01/27 05:49:47;;;;;;;;;;;;;;;2.86;84.75;101980.61;107243;1254;124579;-84
2023/01/27 05:52:15;;;;;;;;;;;;;;;2.84;84.90;101989.55;107413;1257;65927;-86
2023/01/27 05:54:43;;;;;;;;;;;;;;;2.82;84.78;101989.38;107171;1257;124272;-86
2023/01/27 05:57:09;;;;;;;;;;;;;;;2.79;84.94;101989.30;107230;1259;60260;-85
2023/01/27 05:59:35;;;;;;;;;;;;;;;2.76;85.08;102005.00;107147;1256;124463;-85
2023/01/27 06:02:04;;;;;;;;;;;;;;;2.73;85.43;102007.23;107371;1258;59636;-85
2023/01/27 06:04:30;;;;;;;;;;;;;;;2.71;85.56;102004.88;107414;1257;65425;-85
2023/01/27 06:06:57;;;;;;;;;;;;;;;2.71;85.60;102009.01;107404;1253;124586;-87
2023/01/27 06:09:24;;;;;;;;;;;;;;;2.71;85.67;102014.21;107547;1254;60472;-86
2023/01/27 06:11:51;;;;;;;;;;;;;;;2.71;85.69;102014.91;107182;1254;124294;-86
2023/01/27 06:14:18;;;;;;;;;;;;;;;2.73;85.78;102019.53;107464;1254;73629;-85
2023/01/27 06:16:58;;;;;;;;;;;;;;;2.74;85.89;102026.35;107397;1259;66197;-87
2023/01/27 06:19:30;;;;;;;;;;;;;;;2.73;85.93;102032.73;107317;1260;124466;-88
2023/01/27 06:22:01;;;;;;;;;;;;;;;2.71;85.78;102034.47;107285;1254;60404;-84
2023/01/27 06:24:28;;;;;;;;;;;;;;;2.67;85.93;102033.30;107579;1254;124459;-85
2023/01/27 06:26:54;;;;;;;;;;;;;;;2.64;85.77;102040.53;107553;1256;60341;-85
2023/01/27 06:29:24;;;;;;;;;;;;;;;2.62;85.92;102042.63;107862;1257;124252;-84
2023/01/27 06:31:52;;;;;;;;;;;;;;;2.62;86.24;102044.54;107369;1256;72694;-84
2023/01/27 06:34:21;;;;;;;;;;;;;;;2.65;86.29;102049.20;107468;1255;60393;-84
2023/01/27 06:36:54;;;;;;;;;;;;;;;2.65;86.17;102054.83;107010;1255;124606;-83
2023/01/27 06:39:22;;;;;;;;;;;;;;;2.65;86.23;102054.11;107629;1254;72211;-84
2023/01/27 06:41:48;;;;;;;;;;;;;;;2.66;86.30;102052.42;107208;1259;124342;-84
2023/01/27 06:44:15;;;;;;;;;;;;;;;2.67;86.44;102058.74;107251;1254;73112;-85
2023/01/27 06:46:41;;;;;;;;;;;;;;;2.66;86.45;102062.87;107242;1257;60468;-84
2023/01/27 06:49:08;;;;;;;;;;;;;;;2.67;86.17;102069.84;107396;1254;124112;-84
2023/01/27 06:51:35;;;;;;;;;;;;;;;2.68;86.35;102068.89;107576;1254;72520;-85
2023/01/27 06:54:04;;;;;;;;;;;;;;;2.69;86.34;102070.77;107213;1256;124846;-85
2023/01/27 06:56:30;;;;;;;;;;;;;;;2.68;86.20;102073.25;107364;1259;71059;-86
2023/01/27 06:58:58;;;;;;;;;;;;;;;2.67;86.10;102076.64;107345;1256;60918;-85
2023/01/27 07:01:27;;;;;;;;;;;;;;;2.67;86.16;102086.33;107322;1254;124173;-85
2023/01/27 07:03:57;;;;;;;;;;;;;;;2.68;86.16;102094.04;107511;1255;73722;-85
2023/01/27 07:06:28;;;;;;;;;;;;;;;2.67;86.08;102098.25;107541;1254;125280;-84
2023/01/27 07:08:55;;;;;;;;;;;;;;;2.63;85.89;102097.43;107532;1259;72751;-84
2023/01/27 07:11:24;;;;;;;;;;;;;;;2.60;86.41;102095.48;107438;1254;124881;-84
2023/01/27 07:13:53;;;;;;;;;;;;;;;2.60;86.09;102103.80;107521;1255;60881;-84
2023/01/27 07:16:19;;;;;;;;;;;;;;;2.58;86.11;102107.59;107159;1254;72509;-84
2023/01/27 07:18:46;;;;;;;;;;;;;;;2.57;86.05;102116.40;107167;1254;124118;-83
2023/01/27 07:21:12;;;;;;;;;;;;;;;2.56;85.80;102118.20;107184;1256;60431;-83
2023/01/27 07:23:42;;;;;;;;;;;;;;;2.57;85.81;102110.09;107200;1256;124592;-84
2023/01/27 07:26:09;;;;;;;;;;;;;;;2.57;85.86;102116.86;107414;1254;60431;-84
2023/01/27 07:28:38;;;;;;;;;;;;;;;2.57;85.89;102118.65;107406;1258;61290;-84
2023/01/27 07:31:07;;;;;;;;;;;;;;;2.59;85.77;102122.59;107091;1256;124710;-84
2023/01/27 07:33:33;;;;;;;;;;;;;;;2.62;85.67;102123.34;107201;1254;71392;-84
2023/01/27 07:36:00;;;;;;;;;;;;;;;2.64;85.55;102132.48;107059;1254;124358;-86
2023/01/27 07:38:27;;;;;;;;;;;;;;;2.62;85.29;102131.14;107435;1256;59030;-86
2023/01/27 07:40:57;;;;;;;;;;;;;;;2.60;85.15;102130.63;108059;1256;71420;-83
2023/01/27 07:43:25;;;;;;;;;;;;;;;2.61;85.12;102132.79;107269;1254;124825;-83
2023/01/27 07:45:56;;;;;;;;;;;;;;;2.62;84.90;102135.45;107346;1259;72805;-83
2023/01/27 07:48:23;;;;;;;;;;;;;;;2.63;84.68;102144.39;107440;1254;124633;-84
2023/01/27 07:50:51;;;;;;;;;;;;;;;2.62;84.31;102138.78;107215;1254;60681;-84
2023/01/27 07:53:37;;;;;;;;;;;;;;;2.63;84.34;102149.77;107259;1254;124587;-84
2023/01/27 07:56:03;;;;;;;;;;;;;;;2.65;84.10;102165.21;107470;1255;65551;-88
2023/01/27 07:58:29;;;;;;;;;;;;;;;2.66;83.94;102158.38;107403;1254;72692;-82
2023/01/27 08:00:55;;;;;;;;;;;;;;;2.71;83.88;102160.65;107368;1254;125018;-83
2023/01/27 08:03:56;;;;;;;;;;;;;;;2.75;83.69;102161.48;107212;1254;59269;-84
2023/01/27 08:06:25;;;;;;;;;;;;;;;2.75;83.46;102166.14;107244;1258;125019;-82
2023/01/27 08:08:54;;;;;;;;;;;;;;;2.74;83.14;102169.04;107453;1257;65732;-82
2023/01/27 08:11:20;;;;;;;;;;;;;;;2.71;82.95;102172.99;107724;1254;124806;-82
2023/01/27 08:13:46;;;;;;;;;;;;;;;2.73;82.71;102178.33;108017;1256;59068;-80
2023/01/27 08:16:13;;;;;;;;;;;;;;;2.78;82.71;102174.55;109078;1254;58451;-83
2023/01/27 08:18:40;;;;;;;;;;;;;;;2.86;82.54;102174.46;108004;1257;124380;-81
2023/01/27 08:21:09;;;;;;;;;;;;;;;2.89;82.18;102179.92;107445;1257;58923;-80
2023/01/27 08:23:39;;;;;;;;;;;;;;;2.92;81.99;102177.54;107280;1257;123907;-84
2023/01/27 08:26:10;;;;;;;;;;;;;;;2.92;81.92;102181.70;107189;1257;60641;-86
2023/01/27 08:28:36;;;;;;;;;;;;;;;2.92;81.82;102175.84;107331;1257;60524;-86
2023/01/27 08:31:05;;;;;;;;;;;;;;;2.93;81.79;102177.79;107240;1256;124466;-85
2023/01/27 08:33:32;;;;;;;;;;;;;;;3.00;81.61;102183.20;107571;1254;67645;-84
2023/01/27 08:36:03;;;;;;;;;;;;;;;3.12;81.31;102186.73;107419;1260;124814;-84
2023/01/27 08:38:30;;;;;;;;;;;;;;;3.21;81.16;102186.88;107428;1258;60482;-84
2023/01/27 08:40:57;;;;;;;;;;;;;;;3.32;81.11;102208.42;107738;1260;60209;-84
2023/01/27 08:43:23;;;;;;;;;;;;;;;3.41;80.78;102201.98;107201;1261;124062;-84
2023/01/27 08:45:50;;;;;;;;;;;;;;;3.47;80.57;102200.36;107279;1257;60348;-84
2023/01/27 08:48:21;;;;;;;;;;;;;;;3.48;80.42;102199.77;107830;1254;123851;-84
2023/01/27 08:50:49;;;;;;;;;;;;;;;3.52;80.22;102213.57;107568;1257;59376;-85
2023/01/27 08:53:17;;;;;;;;;;;;;;;3.54;79.81;102209.92;107380;1256;124496;-85
2023/01/27 08:55:46;;;;;;;;;;;;;;;3.53;79.24;102210.91;107480;1257;72915;-82
2023/01/27 08:58:14;;;;;;;;;;;;;;;3.48;78.98;102220.77;107565;1256;65657;-82
2023/01/27 09:00:41;;;;;;;;;;;;;;;3.39;78.69;102222.66;107384;1254;124286;-81
2023/01/27 09:03:07;;;;;;;;;;;;;;;3.30;78.80;102226.98;107419;1258;60226;-82
2023/01/27 09:05:34;;;;;;;;;;;;;;;3.24;78.77;102225.48;107045;1260;123763;-82
2023/01/27 09:08:01;;;;;;;;;;;;;;;3.19;78.71;102229.23;107300;1256;73012;-82
2023/01/27 09:10:39;;;;;;;;;;;;;;;3.12;78.64;102237.86;107547;1254;67160;-82
2023/01/27 09:13:07;;;;;;;;;;;;;;;3.06;78.46;102241.91;107436;1258;124327;-82
2023/01/27 09:15:35;;;;;;;;;;;;;;;3.03;78.43;102239.25;107526;1254;60434;-82
2023/01/27 09:18:01;;;;;;;;;;;;;;;3.06;78.59;102244.40;107747;1254;123422;-81
2023/01/27 09:20:36;;;;;;;;;;;;;;;3.09;78.40;102243.38;107491;1254;73815;-81
2023/01/27 09:23:07;;;;;;;;;;;;;;;3.13;78.53;102243.85;107527;1257;67043;-81
2023/01/27 09:25:34;;;;;;;;;;;;;;;3.17;78.46;102247.33;107256;1254;124338;-81
2023/01/27 09:28:00;;;;;;;;;;;;;;;3.21;78.14;102245.17;107540;1254;60345;-84
2023/01/27 09:30:27;;;;;;;;;;;;;;;3.22;78.06;102237.80;107275;1255;124757;-84
2023/01/27 09:32:57;;;;;;;;;;;;;;;3.26;78.25;102243.16;107317;1260;74564;-81
2023/01/27 09:35:28;;;;;;;;;;;;;;;3.36;78.25;102250.02;107223;1254;124425;-81
2023/01/27 09:37:56;;;;;;;;;;;;;;;3.42;77.95;102245.98;107795;1257;71189;-81
2023/01/27 09:40:34;;;;;;;;;;;;;;;3.46;77.84;102246.98;107831;1256;60674;-81
2023/01/27 09:43:10;;;;;;;;;;;;;;;3.51;77.82;102252.05;108914;1254;123825;-82
2023/01/27 09:45:49;;;;;;;;;;;;;;;3.55;77.51;102249.39;108121;1256;72530;-82
2023/01/27 09:48:47;;;;;;;;;;;;;;;3.52;77.21;102251.40;107265;1257;247637;-81
2023/01/27 09:51:20;;;;;;;;;;;;;;;3.52;77.08;102254.55;107479;1256;72520;-81
2023/01/27 09:54:13;;;;;;;;;;;;;;;3.55;77.16;102247.31;107542;1256;126093;-81
2023/01/27 09:56:41;;;;;;;;;;;;;;;3.68;77.41;102246.04;107425;1254;60530;-81
2023/01/27 09:59:29;;;;;;;;;;;;;;;3.73;77.15;102241.02;107831;1257;72411;-81
2023/01/27 10:02:02;;;;;;;;;;;;;;;3.76;76.94;102249.61;108982;1254;67138;-81
2023/01/27 10:04:37;;;;;;;;;;;;;;;3.79;76.81;102243.45;108747;1256;71369;-84
2023/01/27 10:07:13;;;;;;;;;;;;;;;3.86;76.63;102247.06;107350;1259;123649;-84
2023/01/27 10:09:52;;;;;;;;;;;;;;;3.84;76.38;102243.27;107418;1254;59078;-84
2023/01/27 10:12:33;;;;;;;;;;;;;;;3.79;76.23;102245.31;107359;1259;124068;-82
2023/01/27 10:15:22;;;;;;;;;;;;;;;3.79;76.16;102242.90;107398;1254;67673;-86
2023/01/27 10:18:22;;;;;;;;;;;;;;;3.86;76.32;102243.64;106883;1257;123865;-88
2023/01/27 10:21:07;;;;;;;;;;;;;;;3.93;76.24;102248.33;107811;1255;60495;-84
2023/01/27 10:23:52;;;;;;;;;;;;;;;3.98;75.97;102245.23;107192;1259;124281;-85
2023/01/27 10:26:19;;;;;;;;;;;;;;;4.01;75.79;102249.64;107488;1259;72622;-84
2023/01/27 10:28:50;;;;;;;;;;;;;;;4.03;75.60;102243.98;107521;1257;60572;-84
2023/01/27 10:31:26;;;;;;;;;;;;;;;3.99;75.41;102246.16;107392;1257;123619;-85
2023/01/27 10:33:53;;;;;;;;;;;;;;;3.99;75.41;102249.27;107502;1254;59248;-84
2023/01/27 10:36:30;;;;;;;;;;;;;;;3.97;75.53;102252.29;107732;1260;124345;-83
2023/01/27 10:39:01;;;;;;;;;;;;;;;4.02;75.47;102251.44;107913;1256;73693;-84
2023/01/27 10:41:34;;;;;;;;;;;;;;;4.06;75.58;102250.16;107571;1257;124403;-83
2023/01/27 10:44:11;;;;;;;;;;;;;;;4.08;75.50;102254.48;107934;1258;70136;-87
2023/01/27 10:46:49;;;;;;;;;;;;;;;4.19;75.53;102264.13;108032;1261;60473;-84
2023/01/27 10:49:22;;;;;;;;;;;;;;;4.20;75.12;102253.27;108896;1255;124023;-82
2023/01/27 10:51:57;;;;;;;;;;;;;;;4.18;75.00;102253.48;107185;1256;72408;-82
2023/01/27 10:54:26;;;;;;;;;;;;;;;4.14;74.88;102251.77;107300;1259;123456;-82
2023/01/27 10:57:13;;;;;;;;;;;;;;;4.05;74.60;102256.02;106962;1255;72565;-82
2023/01/27 10:59:40;;;;;;;;;;;;;;;3.99;74.74;102253.11;107368;1255;124836;-82
2023/01/27 11:02:12;;;;;;;;;;;;;;;3.97;74.64;102254.90;107986;1256;60377;-82
2023/01/27 11:04:41;;;;;;;;;;;;;;;3.94;74.52;102262.31;109140;1254;72025;-83
2023/01/27 11:07:19;;;;;;;;;;;;;;;3.91;74.27;102265.66;107489;1257;123612;-82
2023/01/27 11:09:55;;;;;;;;;;;;;;;3.85;74.11;102273.27;107335;1258;71460;-82
2023/01/27 11:12:25;;;;;;;;;;;;;;;3.83;74.22;102281.36;107313;1257;124166;-82
2023/01/27 11:14:55;;;;;;;;;;;;;;;3.77;74.13;102275.19;107147;1255;58763;-82
2023/01/27 11:17:43;;;;;;;;;;;;;;;3.73;73.99;102275.09;107120;1254;123925;-82
2023/01/27 11:20:12;;;;;;;;;;;;;;;3.69;74.24;102265.07;107221;1257;67545;-82
2023/01/27 11:22:55;;;;;;;;;;;;;;;3.70;74.29;102276.09;107408;1259;72830;-82
2023/01/27 11:25:33;;;;;;;;;;;;;;;3.58;73.56;102275.36;107196;1256;124155;-82
2023/01/27 11:28:03;;;;;;;;;;;;;;;3.42;73.45;102276.52;108152;1257;59296;-82
2023/01/27 11:30:35;;;;;;;;;;;;;;;3.35;73.65;102265.86;107523;1257;123972;-82
2023/01/27 11:33:02;;;;;;;;;;;;;;;3.36;74.00;102262.50;107685;1256;66998;-82
2023/01/27 11:35:30;;;;;;;;;;;;;;;3.39;74.04;102265.86;107627;1254;124326;-86
2023/01/27 11:37:56;;;;;;;;;;;;;;;3.38;74.00;102266.30;107426;1258;60370;-85
2023/01/27 11:40:33;;;;;;;;;;;;;;;3.43;74.33;102263.74;107360;1254;61117;-85
2023/01/27 11:43:33;;;;;;;;;;;;;;;3.56;74.17;102272.77;107138;1255;124109;-85
2023/01/27 11:46:01;;;;;;;;;;;;;;;3.56;73.68;102267.33;107132;1259;66962;-85
2023/01/27 11:48:34;;;;;;;;;;;;;;;3.54;73.42;102269.95;107093;1257;123342;-86
2023/01/27 11:51:01;;;;;;;;;;;;;;;3.50;73.18;102267.45;107161;1257;60467;-85
2023/01/27 11:53:29;;;;;;;;;;;;;;;3.48;73.21;102271.28;106972;1257;123876;-85
2023/01/27 11:56:01;;;;;;;;;;;;;;;3.43;72.71;102273.82;107316;1256;74534;-85
2023/01/27 11:58:33;;;;;;;;;;;;;;;3.41;72.86;102269.45;107120;1257;66931;-85
2023/01/27 12:01:00;;;;;;;;;;;;;;;3.39;72.71;102271.06;107110;1254;123805;-84
2023/01/27 12:03:53;;;;;;;;;;;;;;;3.31;72.67;102272.36;107413;1257;60551;-85
2023/01/27 12:06:40;;;;;;;;;;;;;;;3.19;72.49;102273.66;107040;1257;123604;-85
2023/01/27 12:09:06;;;;;;;;;;;;;;;3.04;72.29;102274.55;107090;1259;74105;-85
2023/01/27 12:11:32;;;;;;;;;;;;;;;2.97;72.59;102265.79;107063;1255;123612;-85
2023/01/27 12:14:03;;;;;;;;;;;;;;;2.95;72.54;102271.73;107194;1254;60507;-84
2023/01/27 12:16:46;;;;;;;;;;;;;;;2.96;72.90;102269.54;107463;1261;60470;-85
2023/01/27 12:19:30;;;;;;;;;;;;;;;3.07;72.96;102272.39;107517;1256;124873;-85
2023/01/27 12:21:59;;;;;;;;;;;;;;;3.14;72.93;102267.20;107639;1258;72778;-81
2023/01/27 12:24:28;;;;;;;;;;;;;;;3.10;72.36;102259.08;107200;1254;123737;-85
2023/01/27 12:26:55;;;;;;;;;;;;;;;3.02;71.97;102268.02;107212;1253;70628;-85
2023/01/27 12:29:29;;;;;;;;;;;;;;;3.00;71.99;102267.65;107249;1255;123892;-82
2023/01/27 12:31:57;;;;;;;;;;;;;;;3.04;72.18;102265.85;107420;1260;60605;-81
2023/01/27 12:34:57;;;;;;;;;;;;;;;2.98;71.88;102274.23;107606;1256;73923;-82
2023/01/27 12:37:36;;;;;;;;;;;;;;;2.87;71.96;102270.96;107663;1257;123281;-84
2023/01/27 12:40:15;;;;;;;;;;;;;;;2.82;71.91;102275.75;107562;1257;73275;-85
2023/01/27 12:42:46;;;;;;;;;;;;;;;2.72;71.58;102273.76;107394;1257;124146;-85
2023/01/27 12:45:25;;;;;;;;;;;;;;;2.60;71.46;102272.77;107629;1257;59076;-85
2023/01/27 12:47:55;;;;;;;;;;;;;;;2.49;71.37;102277.95;107557;1257;123596;-83
2023/01/27 12:50:32;;;;;;;;;;;;;;;2.49;71.36;102278.97;107728;1262;66876;-82
2023/01/27 12:53:27;;;;;;;;;;;;;;;2.50;71.48;102275.80;107323;1257;71119;-83
2023/01/27 12:56:03;;;;;;;;;;;;;;;2.48;71.27;102281.02;108165;1257;58798;-84
2023/01/27 12:58:57;;;;;;;;;;;;;;;2.48;71.41;102280.30;107817;1259;60302;-83
2023/01/27 13:01:33;;;;;;;;;;;;;;;2.49;71.21;102280.84;108480;1257;123587;-79
2023/01/27 13:04:00;;;;;;;;;;;;;;;2.50;71.16;102286.55;108671;1254;64653;-80
2023/01/27 13:06:38;;;;;;;;;;;;;;;2.48;71.01;102278.58;107319;1257;124291;-81
2023/01/27 13:09:04;;;;;;;;;;;;;;;2.53;71.06;102278.10;107413;1255;60383;-81
2023/01/27 13:11:36;;;;;;;;;;;;;;;2.59;70.87;102280.14;107551;1257;124175;-81
2023/01/27 13:14:43;;;;;;;;;;;;;;;2.56;70.80;102273.77;107384;1254;74265;-81
2023/01/27 13:17:31;;;;;;;;;;;;;;;2.50;70.66;102279.22;107160;1257;67079;-83
2023/01/27 13:19:58;;;;;;;;;;;;;;;2.50;70.57;102280.08;107076;1257;72969;-82
2023/01/27 13:22:25;;;;;;;;;;;;;;;2.54;70.62;102277.11;107215;1256;60353;-83
2023/01/27 13:24:53;;;;;;;;;;;;;;;2.54;70.51;102280.73;107731;1257;124664;-85
2023/01/27 13:27:20;;;;;;;;;;;;;;;2.51;70.43;102278.44;107376;1262;73104;-81
2023/01/27 13:29:58;;;;;;;;;;;;;;;2.49;70.48;102271.35;107355;1256;123806;-80
2023/01/27 13:32:25;;;;;;;;;;;;;;;2.48;70.30;102276.45;107540;1256;72784;-80
2023/01/27 13:35:12;;;;;;;;;;;;;;;2.48;70.59;102277.02;108760;1256;60995;-79